sensor_id;sensor_type;location;lat;lon;timestamp;P1;durP1;ratioP1;P2;durP2;ratioP2
71715;SDS011;59568;52.128;5.434;2023-04-28T00:01:35;7.83;;;3.30;;
71715;SDS011;59568;52.128;5.434;2023-04-28T00:04:02;6.07;;;3.15;;
71715;SDS011;59568;52.128;5.434;2023-04-28T00:06:29;5.35;;;3.00;;
71715;SDS011;59568;52.128;5.434;2023-04-28T00:08:57;5.82;;;2.72;;
71715;SDS011;59568;52.128;5.434;2023-04-28T00:11:24;5.18;;;2.90;;
71715;SDS011;59568;52.128;5.434;2023-04-28T00:13:50;7.13;;;2.97;;
71715;SDS011;59568;52.128;5.434;2023-04-28T00:16:17;7.05;;;2.90;;
71715;SDS011;59568;52.128;5.434;2023-04-28T00:18:44;6.50;;;3.05;;
71715;SDS011;59568;52.128;5.434;2023-04-28T00:21:11;6.00;;;3.05;;
71715;SDS011;59568;52.128;5.434;2023-04-28T00:23:37;5.60;;;2.78;;
71715;SDS011;59568;52.128;5.434;2023-04-28T00:26:04;8.93;;;3.10;;
71715;SDS011;59568;52.128;5.434;2023-04-28T00:28:31;6.10;;;2.95;;
71715;SDS011;59568;52.128;5.434;2023-04-28T00:31:00;5.65;;;2.55;;
71715;SDS011;59568;52.128;5.434;2023-04-28T00:33:27;7.20;;;3.00;;
71715;SDS011;59568;52.128;5.434;2023-04-28T00:35:59;4.63;;;2.92;;
71715;SDS011;59568;52.128;5.434;2023-04-28T00:38:26;6.90;;;3.10;;
71715;SDS011;59568;52.128;5.434;2023-04-28T00:40:53;4.72;;;2.50;;
71715;SDS011;59568;52.128;5.434;2023-04-28T00:43:20;5.53;;;2.67;;
71715;SDS011;59568;52.128;5.434;2023-04-28T00:45:47;5.40;;;2.63;;
71715;SDS011;59568;52.128;5.434;2023-04-28T00:48:15;6.47;;;3.10;;
71715;SDS011;59568;52.128;5.434;2023-04-28T00:50:45;5.63;;;3.33;;
71715;SDS011;59568;52.128;5.434;2023-04-28T00:53:13;5.03;;;2.80;;
71715;SDS011;59568;52.128;5.434;2023-04-28T00:55:39;6.68;;;2.95;;
71715;SDS011;59568;52.128;5.434;2023-04-28T00:58:06;4.78;;;2.42;;
71715;SDS011;59568;52.128;5.434;2023-04-28T01:00:33;3.72;;;2.42;;
71715;SDS011;59568;52.128;5.434;2023-04-28T01:03:00;5.30;;;2.70;;
71715;SDS011;59568;52.128;5.434;2023-04-28T01:05:27;6.30;;;2.80;;
71715;SDS011;59568;52.128;5.434;2023-04-28T01:07:55;5.40;;;2.83;;
71715;SDS011;59568;52.128;5.434;2023-04-28T01:10:21;4.32;;;2.70;;
71715;SDS011;59568;52.128;5.434;2023-04-28T01:12:48;5.32;;;2.90;;
71715;SDS011;59568;52.128;5.434;2023-04-28T01:15:15;6.10;;;2.90;;
71715;SDS011;59568;52.128;5.434;2023-04-28T01:17:43;4.60;;;2.88;;
71715;SDS011;59568;52.128;5.434;2023-04-28T01:20:11;5.22;;;2.58;;
71715;SDS011;59568;52.128;5.434;2023-04-28T01:22:38;9.20;;;2.78;;
71715;SDS011;59568;52.128;5.434;2023-04-28T01:25:04;5.85;;;2.63;;
71715;SDS011;59568;52.128;5.434;2023-04-28T01:27:31;5.47;;;2.93;;
71715;SDS011;59568;52.128;5.434;2023-04-28T01:29:57;6.43;;;3.40;;
71715;SDS011;59568;52.128;5.434;2023-04-28T01:32:24;5.65;;;2.80;;
71715;SDS011;59568;52.128;5.434;2023-04-28T01:34:50;7.15;;;2.83;;
71715;SDS011;59568;52.128;5.434;2023-04-28T01:37:17;6.93;;;2.78;;
71715;SDS011;59568;52.128;5.434;2023-04-28T01:39:43;4.20;;;2.70;;
71715;SDS011;59568;52.128;5.434;2023-04-28T01:42:10;4.60;;;2.70;;
71715;SDS011;59568;52.128;5.434;2023-04-28T01:44:36;6.65;;;2.70;;
71715;SDS011;59568;52.128;5.434;2023-04-28T01:47:02;5.63;;;3.03;;
71715;SDS011;59568;52.128;5.434;2023-04-28T01:49:29;3.97;;;2.40;;
71715;SDS011;59568;52.128;5.434;2023-04-28T01:51:55;7.13;;;2.83;;
71715;SDS011;59568;52.128;5.434;2023-04-28T01:54:22;5.95;;;2.55;;
71715;SDS011;59568;52.128;5.434;2023-04-28T01:56:49;5.90;;;3.17;;
71715;SDS011;59568;52.128;5.434;2023-04-28T01:59:15;4.72;;;2.70;;
71715;SDS011;59568;52.128;5.434;2023-04-28T02:01:42;4.07;;;2.33;;
71715;SDS011;59568;52.128;5.434;2023-04-28T02:04:08;6.73;;;2.83;;
71715;SDS011;59568;52.128;5.434;2023-04-28T02:06:35;5.07;;;2.28;;
71715;SDS011;59568;52.128;5.434;2023-04-28T02:09:01;6.03;;;2.53;;
71715;SDS011;59568;52.128;5.434;2023-04-28T02:11:28;5.53;;;2.50;;
71715;SDS011;59568;52.128;5.434;2023-04-28T02:13:54;4.13;;;2.28;;
71715;SDS011;59568;52.128;5.434;2023-04-28T02:16:21;4.73;;;2.50;;
71715;SDS011;59568;52.128;5.434;2023-04-28T02:18:48;6.50;;;2.70;;
71715;SDS011;59568;52.128;5.434;2023-04-28T02:21:15;4.75;;;2.50;;
71715;SDS011;59568;52.128;5.434;2023-04-28T02:23:41;6.85;;;2.85;;
71715;SDS011;59568;52.128;5.434;2023-04-28T02:26:08;5.95;;;2.60;;
71715;SDS011;59568;52.128;5.434;2023-04-28T02:28:35;3.90;;;2.53;;
71715;SDS011;59568;52.128;5.434;2023-04-28T02:31:08;4.22;;;2.55;;
71715;SDS011;59568;52.128;5.434;2023-04-28T02:33:35;4.40;;;2.67;;
71715;SDS011;59568;52.128;5.434;2023-04-28T02:36:04;4.45;;;2.33;;
71715;SDS011;59568;52.128;5.434;2023-04-28T02:38:32;5.72;;;2.85;;
71715;SDS011;59568;52.128;5.434;2023-04-28T02:41:05;6.10;;;2.73;;
71715;SDS011;59568;52.128;5.434;2023-04-28T02:43:34;4.10;;;2.53;;
71715;SDS011;59568;52.128;5.434;2023-04-28T02:46:02;5.32;;;2.80;;
71715;SDS011;59568;52.128;5.434;2023-04-28T02:48:29;7.07;;;3.08;;
71715;SDS011;59568;52.128;5.434;2023-04-28T02:51:00;6.43;;;2.58;;
71715;SDS011;59568;52.128;5.434;2023-04-28T02:53:27;4.17;;;2.63;;
71715;SDS011;59568;52.128;5.434;2023-04-28T02:55:54;5.20;;;2.58;;
71715;SDS011;59568;52.128;5.434;2023-04-28T02:58:22;4.88;;;2.70;;
71715;SDS011;59568;52.128;5.434;2023-04-28T03:00:49;4.97;;;2.88;;
71715;SDS011;59568;52.128;5.434;2023-04-28T03:03:15;5.95;;;2.53;;
71715;SDS011;59568;52.128;5.434;2023-04-28T03:05:42;5.73;;;2.83;;
71715;SDS011;59568;52.128;5.434;2023-04-28T03:08:09;6.55;;;2.42;;
71715;SDS011;59568;52.128;5.434;2023-04-28T03:10:35;6.25;;;3.10;;
71715;SDS011;59568;52.128;5.434;2023-04-28T03:13:01;4.28;;;2.60;;
71715;SDS011;59568;52.128;5.434;2023-04-28T03:15:28;5.32;;;2.65;;
71715;SDS011;59568;52.128;5.434;2023-04-28T03:17:54;3.60;;;2.50;;
71715;SDS011;59568;52.128;5.434;2023-04-28T03:20:21;5.50;;;2.70;;
71715;SDS011;59568;52.128;5.434;2023-04-28T03:22:48;6.03;;;2.72;;
71715;SDS011;59568;52.128;5.434;2023-04-28T03:25:14;5.65;;;2.65;;
71715;SDS011;59568;52.128;5.434;2023-04-28T03:27:41;5.82;;;2.67;;
71715;SDS011;59568;52.128;5.434;2023-04-28T03:30:07;9.27;;;2.63;;
71715;SDS011;59568;52.128;5.434;2023-04-28T03:32:35;7.32;;;2.50;;
71715;SDS011;59568;52.128;5.434;2023-04-28T03:35:02;7.57;;;2.70;;
71715;SDS011;59568;52.128;5.434;2023-04-28T03:37:28;6.65;;;2.83;;
71715;SDS011;59568;52.128;5.434;2023-04-28T03:39:55;4.90;;;2.60;;
71715;SDS011;59568;52.128;5.434;2023-04-28T03:42:21;4.33;;;2.33;;
71715;SDS011;59568;52.128;5.434;2023-04-28T03:44:48;8.40;;;2.90;;
71715;SDS011;59568;52.128;5.434;2023-04-28T03:47:14;4.95;;;2.63;;
71715;SDS011;59568;52.128;5.434;2023-04-28T03:49:41;9.23;;;3.25;;
71715;SDS011;59568;52.128;5.434;2023-04-28T03:52:07;5.65;;;2.97;;
71715;SDS011;59568;52.128;5.434;2023-04-28T03:54:34;4.57;;;2.97;;
71715;SDS011;59568;52.128;5.434;2023-04-28T03:57:00;5.97;;;2.80;;
71715;SDS011;59568;52.128;5.434;2023-04-28T03:59:27;3.97;;;2.58;;
71715;SDS011;59568;52.128;5.434;2023-04-28T04:01:53;3.67;;;2.40;;
71715;SDS011;59568;52.128;5.434;2023-04-28T04:04:20;5.47;;;2.80;;
71715;SDS011;59568;52.128;5.434;2023-04-28T04:06:47;8.10;;;2.67;;
71715;SDS011;59568;52.128;5.434;2023-04-28T04:09:14;9.35;;;2.90;;
71715;SDS011;59568;52.128;5.434;2023-04-28T04:11:40;4.80;;;2.42;;
71715;SDS011;59568;52.128;5.434;2023-04-28T04:14:07;6.85;;;2.60;;
71715;SDS011;59568;52.128;5.434;2023-04-28T04:16:34;7.57;;;2.50;;
71715;SDS011;59568;52.128;5.434;2023-04-28T04:19:01;5.57;;;2.70;;
71715;SDS011;59568;52.128;5.434;2023-04-28T04:21:27;6.20;;;2.42;;
71715;SDS011;59568;52.128;5.434;2023-04-28T04:23:54;5.22;;;2.63;;
71715;SDS011;59568;52.128;5.434;2023-04-28T04:26:21;4.50;;;2.55;;
71715;SDS011;59568;52.128;5.434;2023-04-28T04:28:47;5.10;;;2.50;;
71715;SDS011;59568;52.128;5.434;2023-04-28T04:31:14;10.87;;;2.80;;
71715;SDS011;59568;52.128;5.434;2023-04-28T04:33:41;5.35;;;2.83;;
71715;SDS011;59568;52.128;5.434;2023-04-28T04:36:08;4.97;;;2.58;;
71715;SDS011;59568;52.128;5.434;2023-04-28T04:38:34;5.03;;;2.63;;
71715;SDS011;59568;52.128;5.434;2023-04-28T04:41:01;6.65;;;3.17;;
71715;SDS011;59568;52.128;5.434;2023-04-28T04:43:27;5.30;;;2.93;;
71715;SDS011;59568;52.128;5.434;2023-04-28T04:45:54;4.55;;;2.40;;
71715;SDS011;59568;52.128;5.434;2023-04-28T04:48:21;6.05;;;2.78;;
71715;SDS011;59568;52.128;5.434;2023-04-28T04:50:47;5.97;;;2.90;;
71715;SDS011;59568;52.128;5.434;2023-04-28T04:53:14;9.70;;;3.75;;
71715;SDS011;59568;52.128;5.434;2023-04-28T04:55:41;4.80;;;3.00;;
71715;SDS011;59568;52.128;5.434;2023-04-28T04:58:08;5.85;;;2.85;;
71715;SDS011;59568;52.128;5.434;2023-04-28T05:00:35;5.93;;;2.92;;
71715;SDS011;59568;52.128;5.434;2023-04-28T05:03:03;4.50;;;2.95;;
71715;SDS011;59568;52.128;5.434;2023-04-28T05:05:31;5.68;;;3.33;;
71715;SDS011;59568;52.128;5.434;2023-04-28T05:07:58;5.30;;;3.00;;
71715;SDS011;59568;52.128;5.434;2023-04-28T05:10:25;5.45;;;2.65;;
71715;SDS011;59568;52.128;5.434;2023-04-28T05:12:52;7.68;;;3.20;;
71715;SDS011;59568;52.128;5.434;2023-04-28T05:15:19;6.43;;;3.10;;
71715;SDS011;59568;52.128;5.434;2023-04-28T05:17:46;7.25;;;2.90;;
71715;SDS011;59568;52.128;5.434;2023-04-28T05:20:13;5.37;;;3.50;;
71715;SDS011;59568;52.128;5.434;2023-04-28T05:22:39;5.22;;;3.35;;
71715;SDS011;59568;52.128;5.434;2023-04-28T05:25:06;6.38;;;3.47;;
71715;SDS011;59568;52.128;5.434;2023-04-28T05:27:33;6.47;;;3.17;;
71715;SDS011;59568;52.128;5.434;2023-04-28T05:30:02;6.85;;;2.97;;
71715;SDS011;59568;52.128;5.434;2023-04-28T05:32:29;7.77;;;3.70;;
71715;SDS011;59568;52.128;5.434;2023-04-28T05:34:56;5.85;;;3.42;;
71715;SDS011;59568;52.128;5.434;2023-04-28T05:37:23;6.75;;;3.38;;
71715;SDS011;59568;52.128;5.434;2023-04-28T05:39:50;6.00;;;3.67;;
71715;SDS011;59568;52.128;5.434;2023-04-28T05:42:16;8.15;;;3.47;;
71715;SDS011;59568;52.128;5.434;2023-04-28T05:44:42;6.17;;;3.50;;
71715;SDS011;59568;52.128;5.434;2023-04-28T05:47:09;9.13;;;4.32;;
71715;SDS011;59568;52.128;5.434;2023-04-28T05:49:36;9.80;;;3.90;;
71715;SDS011;59568;52.128;5.434;2023-04-28T05:52:03;7.53;;;3.67;;
71715;SDS011;59568;52.128;5.434;2023-04-28T05:54:30;10.48;;;4.40;;
71715;SDS011;59568;52.128;5.434;2023-04-28T05:56:59;7.60;;;3.60;;
71715;SDS011;59568;52.128;5.434;2023-04-28T05:59:27;6.32;;;3.33;;
71715;SDS011;59568;52.128;5.434;2023-04-28T06:01:55;5.90;;;3.30;;
71715;SDS011;59568;52.128;5.434;2023-04-28T06:04:22;8.07;;;3.95;;
71715;SDS011;59568;52.128;5.434;2023-04-28T06:06:50;9.55;;;4.05;;
71715;SDS011;59568;52.128;5.434;2023-04-28T06:09:17;10.27;;;4.53;;
71715;SDS011;59568;52.128;5.434;2023-04-28T06:11:44;7.00;;;4.00;;
71715;SDS011;59568;52.128;5.434;2023-04-28T06:14:10;10.65;;;4.78;;
71715;SDS011;59568;52.128;5.434;2023-04-28T06:16:37;7.90;;;4.00;;
71715;SDS011;59568;52.128;5.434;2023-04-28T06:19:04;7.38;;;4.60;;
71715;SDS011;59568;52.128;5.434;2023-04-28T06:21:30;7.00;;;4.43;;
71715;SDS011;59568;52.128;5.434;2023-04-28T06:23:57;8.77;;;4.60;;
71715;SDS011;59568;52.128;5.434;2023-04-28T06:26:24;11.95;;;5.20;;
71715;SDS011;59568;52.128;5.434;2023-04-28T06:28:50;10.80;;;5.15;;
71715;SDS011;59568;52.128;5.434;2023-04-28T06:31:17;11.50;;;5.80;;
71715;SDS011;59568;52.128;5.434;2023-04-28T06:33:43;8.63;;;5.20;;
71715;SDS011;59568;52.128;5.434;2023-04-28T06:36:10;11.82;;;5.35;;
71715;SDS011;59568;52.128;5.434;2023-04-28T06:38:39;10.52;;;5.28;;
71715;SDS011;59568;52.128;5.434;2023-04-28T06:41:08;13.27;;;5.78;;
71715;SDS011;59568;52.128;5.434;2023-04-28T06:43:36;10.35;;;5.60;;
71715;SDS011;59568;52.128;5.434;2023-04-28T06:46:06;10.57;;;6.47;;
71715;SDS011;59568;52.128;5.434;2023-04-28T06:48:33;9.70;;;5.85;;
71715;SDS011;59568;52.128;5.434;2023-04-28T06:50:59;10.68;;;5.45;;
71715;SDS011;59568;52.128;5.434;2023-04-28T06:53:26;9.60;;;5.75;;
71715;SDS011;59568;52.128;5.434;2023-04-28T06:55:53;12.50;;;6.40;;
71715;SDS011;59568;52.128;5.434;2023-04-28T06:58:21;10.40;;;6.20;;
71715;SDS011;59568;52.128;5.434;2023-04-28T07:00:48;8.00;;;6.07;;
71715;SDS011;59568;52.128;5.434;2023-04-28T07:03:14;12.43;;;6.47;;
71715;SDS011;59568;52.128;5.434;2023-04-28T07:05:41;10.50;;;6.30;;
71715;SDS011;59568;52.128;5.434;2023-04-28T07:08:08;14.55;;;7.30;;
71715;SDS011;59568;52.128;5.434;2023-04-28T07:10:35;13.00;;;6.07;;
71715;SDS011;59568;52.128;5.434;2023-04-28T07:13:01;11.18;;;6.55;;
71715;SDS011;59568;52.128;5.434;2023-04-28T07:15:28;13.48;;;6.97;;
71715;SDS011;59568;52.128;5.434;2023-04-28T07:17:54;12.85;;;7.65;;
71715;SDS011;59568;52.128;5.434;2023-04-28T07:20:21;12.25;;;7.28;;
71715;SDS011;59568;52.128;5.434;2023-04-28T07:22:48;12.10;;;6.57;;
71715;SDS011;59568;52.128;5.434;2023-04-28T07:25:14;13.73;;;8.02;;
71715;SDS011;59568;52.128;5.434;2023-04-28T07:27:41;11.50;;;7.60;;
71715;SDS011;59568;52.128;5.434;2023-04-28T07:30:07;10.73;;;7.30;;
71715;SDS011;59568;52.128;5.434;2023-04-28T07:32:52;12.50;;;7.43;;
71715;SDS011;59568;52.128;5.434;2023-04-28T07:35:19;13.03;;;7.40;;
71715;SDS011;59568;52.128;5.434;2023-04-28T07:37:46;11.05;;;7.25;;
71715;SDS011;59568;52.128;5.434;2023-04-28T07:40:13;15.40;;;7.75;;
71715;SDS011;59568;52.128;5.434;2023-04-28T07:42:40;11.25;;;8.25;;
71715;SDS011;59568;52.128;5.434;2023-04-28T07:45:06;12.27;;;7.63;;
71715;SDS011;59568;52.128;5.434;2023-04-28T07:47:33;13.00;;;7.80;;
71715;SDS011;59568;52.128;5.434;2023-04-28T07:50:01;12.52;;;7.97;;
71715;SDS011;59568;52.128;5.434;2023-04-28T07:52:31;12.75;;;8.38;;
71715;SDS011;59568;52.128;5.434;2023-04-28T07:54:59;14.60;;;9.25;;
71715;SDS011;59568;52.128;5.434;2023-04-28T07:57:25;14.35;;;7.95;;
71715;SDS011;59568;52.128;5.434;2023-04-28T07:59:52;13.47;;;8.00;;
71715;SDS011;59568;52.128;5.434;2023-04-28T08:02:19;13.15;;;8.00;;
71715;SDS011;59568;52.128;5.434;2023-04-28T08:04:46;10.93;;;7.78;;
71715;SDS011;59568;52.128;5.434;2023-04-28T08:07:13;13.95;;;8.38;;
71715;SDS011;59568;52.128;5.434;2023-04-28T08:09:40;11.45;;;7.95;;
71715;SDS011;59568;52.128;5.434;2023-04-28T08:12:09;12.83;;;7.57;;
71715;SDS011;59568;52.128;5.434;2023-04-28T08:14:35;12.38;;;7.55;;
71715;SDS011;59568;52.128;5.434;2023-04-28T08:17:02;14.55;;;8.10;;
71715;SDS011;59568;52.128;5.434;2023-04-28T08:19:29;12.82;;;7.80;;
71715;SDS011;59568;52.128;5.434;2023-04-28T08:21:56;13.48;;;8.88;;
71715;SDS011;59568;52.128;5.434;2023-04-28T08:24:22;12.53;;;7.83;;
71715;SDS011;59568;52.128;5.434;2023-04-28T08:26:49;12.70;;;8.50;;
71715;SDS011;59568;52.128;5.434;2023-04-28T08:29:15;14.52;;;8.88;;
71715;SDS011;59568;52.128;5.434;2023-04-28T08:31:42;13.27;;;8.30;;
71715;SDS011;59568;52.128;5.434;2023-04-28T08:34:09;15.25;;;8.70;;
71715;SDS011;59568;52.128;5.434;2023-04-28T08:36:35;13.33;;;8.30;;
71715;SDS011;59568;52.128;5.434;2023-04-28T08:39:02;11.50;;;7.90;;
71715;SDS011;59568;52.128;5.434;2023-04-28T08:41:31;15.38;;;9.05;;
71715;SDS011;59568;52.128;5.434;2023-04-28T08:43:58;17.50;;;8.75;;
71715;SDS011;59568;52.128;5.434;2023-04-28T08:46:25;12.23;;;9.00;;
71715;SDS011;59568;52.128;5.434;2023-04-28T08:48:53;14.93;;;8.97;;
71715;SDS011;59568;52.128;5.434;2023-04-28T08:51:26;18.27;;;9.35;;
71715;SDS011;59568;52.128;5.434;2023-04-28T08:54:07;16.20;;;9.27;;
71715;SDS011;59568;52.128;5.434;2023-04-28T08:56:36;13.10;;;8.70;;
71715;SDS011;59568;52.128;5.434;2023-04-28T08:59:04;15.30;;;9.23;;
71715;SDS011;59568;52.128;5.434;2023-04-28T09:01:30;14.23;;;8.73;;
71715;SDS011;59568;52.128;5.434;2023-04-28T09:04:00;18.25;;;8.82;;
71715;SDS011;59568;52.128;5.434;2023-04-28T09:06:37;13.50;;;9.18;;
71715;SDS011;59568;52.128;5.434;2023-04-28T09:11:57;15.13;;;9.77;;
71715;SDS011;59568;52.128;5.434;2023-04-28T09:14:29;17.87;;;9.57;;
71715;SDS011;59568;52.128;5.434;2023-04-28T09:16:58;15.13;;;9.60;;
71715;SDS011;59568;52.128;5.434;2023-04-28T09:19:34;13.18;;;9.68;;
71715;SDS011;59568;52.128;5.434;2023-04-28T09:22:02;13.57;;;8.82;;
71715;SDS011;59568;52.128;5.434;2023-04-28T09:24:50;15.60;;;9.25;;
71715;SDS011;59568;52.128;5.434;2023-04-28T09:27:20;12.80;;;9.50;;
71715;SDS011;59568;52.128;5.434;2023-04-28T09:29:52;15.07;;;10.13;;
71715;SDS011;59568;52.128;5.434;2023-04-28T09:32:20;14.18;;;9.65;;
71715;SDS011;59568;52.128;5.434;2023-04-28T09:34:52;14.07;;;9.13;;
71715;SDS011;59568;52.128;5.434;2023-04-28T09:37:23;13.55;;;9.30;;
71715;SDS011;59568;52.128;5.434;2023-04-28T09:39:51;14.37;;;10.13;;
71715;SDS011;59568;52.128;5.434;2023-04-28T09:45:09;14.45;;;9.52;;
71715;SDS011;59568;52.128;5.434;2023-04-28T09:47:40;14.18;;;10.25;;
71715;SDS011;59568;52.128;5.434;2023-04-28T09:50:09;12.98;;;9.25;;
71715;SDS011;59568;52.128;5.434;2023-04-28T09:52:40;14.73;;;9.37;;
71715;SDS011;59568;52.128;5.434;2023-04-28T09:55:10;12.95;;;9.60;;
71715;SDS011;59568;52.128;5.434;2023-04-28T09:57:38;16.33;;;9.65;;
71715;SDS011;59568;52.128;5.434;2023-04-28T10:00:05;14.40;;;9.07;;
71715;SDS011;59568;52.128;5.434;2023-04-28T10:02:35;14.02;;;9.88;;
71715;SDS011;59568;52.128;5.434;2023-04-28T10:05:06;15.50;;;9.80;;
71715;SDS011;59568;52.128;5.434;2023-04-28T10:07:36;14.93;;;9.32;;
71715;SDS011;59568;52.128;5.434;2023-04-28T10:10:05;14.80;;;10.18;;
71715;SDS011;59568;52.128;5.434;2023-04-28T10:12:32;12.77;;;9.43;;
71715;SDS011;59568;52.128;5.434;2023-04-28T10:15:00;12.88;;;9.30;;
71715;SDS011;59568;52.128;5.434;2023-04-28T10:17:27;12.90;;;8.73;;
71715;SDS011;59568;52.128;5.434;2023-04-28T10:19:55;10.45;;;8.35;;
71715;SDS011;59568;52.128;5.434;2023-04-28T10:25:24;10.52;;;8.20;;
71715;SDS011;59568;52.128;5.434;2023-04-28T10:27:52;9.75;;;7.80;;
71715;SDS011;59568;52.128;5.434;2023-04-28T10:30:20;8.53;;;6.73;;
71715;SDS011;59568;52.128;5.434;2023-04-28T10:38:12;9.15;;;7.05;;
71715;SDS011;59568;52.128;5.434;2023-04-28T10:40:43;7.85;;;6.50;;
71715;SDS011;59568;52.128;5.434;2023-04-28T10:43:11;9.67;;;6.67;;
71715;SDS011;59568;52.128;5.434;2023-04-28T10:56:20;8.53;;;6.43;;
71715;SDS011;59568;52.128;5.434;2023-04-28T11:03:50;7.80;;;5.90;;
71715;SDS011;59568;52.128;5.434;2023-04-28T11:06:30;7.30;;;5.35;;
71715;SDS011;59568;52.128;5.434;2023-04-28T11:16:52;8.75;;;6.13;;
71715;SDS011;59568;52.128;5.434;2023-04-28T11:19:23;8.85;;;5.65;;
71715;SDS011;59568;52.128;5.434;2023-04-28T11:21:52;8.07;;;5.87;;
71715;SDS011;59568;52.128;5.434;2023-04-28T11:24:21;8.85;;;5.50;;
71715;SDS011;59568;52.128;5.434;2023-04-28T11:26:50;8.27;;;5.53;;
71715;SDS011;59568;52.128;5.434;2023-04-28T11:29:30;8.48;;;5.82;;
71715;SDS011;59568;52.128;5.434;2023-04-28T11:31:58;8.95;;;6.72;;
71715;SDS011;59568;52.128;5.434;2023-04-28T11:34:25;8.60;;;6.10;;
71715;SDS011;59568;52.128;5.434;2023-04-28T11:36:52;9.20;;;6.20;;
71715;SDS011;59568;52.128;5.434;2023-04-28T11:39:30;10.18;;;6.47;;
71715;SDS011;59568;52.128;5.434;2023-04-28T11:42:09;9.63;;;6.88;;
71715;SDS011;59568;52.128;5.434;2023-04-28T11:44:36;10.02;;;6.93;;
71715;SDS011;59568;52.128;5.434;2023-04-28T11:47:03;10.97;;;7.17;;
71715;SDS011;59568;52.128;5.434;2023-04-28T11:49:41;8.93;;;5.97;;
71715;SDS011;59568;52.128;5.434;2023-04-28T11:52:09;9.32;;;5.70;;
71715;SDS011;59568;52.128;5.434;2023-04-28T11:54:36;9.30;;;5.28;;
71715;SDS011;59568;52.128;5.434;2023-04-28T11:57:03;8.52;;;5.10;;
71715;SDS011;59568;52.128;5.434;2023-04-28T11:59:32;7.97;;;5.00;;
71715;SDS011;59568;52.128;5.434;2023-04-28T12:02:02;6.63;;;4.40;;
71715;SDS011;59568;52.128;5.434;2023-04-28T12:04:40;7.93;;;4.97;;
71715;SDS011;59568;52.128;5.434;2023-04-28T12:07:09;8.15;;;4.85;;
71715;SDS011;59568;52.128;5.434;2023-04-28T12:09:41;9.13;;;4.72;;
71715;SDS011;59568;52.128;5.434;2023-04-28T12:12:11;8.07;;;4.20;;
71715;SDS011;59568;52.128;5.434;2023-04-28T12:17:35;8.63;;;3.88;;
71715;SDS011;59568;52.128;5.434;2023-04-28T12:20:05;9.60;;;4.60;;
71715;SDS011;59568;52.128;5.434;2023-04-28T12:22:43;7.35;;;4.20;;
71715;SDS011;59568;52.128;5.434;2023-04-28T12:25:12;8.17;;;4.00;;
71715;SDS011;59568;52.128;5.434;2023-04-28T12:28:00;7.50;;;4.03;;
71715;SDS011;59568;52.128;5.434;2023-04-28T12:30:32;6.60;;;3.35;;
71715;SDS011;59568;52.128;5.434;2023-04-28T12:33:00;7.45;;;3.42;;
71715;SDS011;59568;52.128;5.434;2023-04-28T12:35:27;6.38;;;3.70;;
71715;SDS011;59568;52.128;5.434;2023-04-28T12:37:54;7.97;;;3.43;;
71715;SDS011;59568;52.128;5.434;2023-04-28T12:40:23;5.20;;;2.72;;
71715;SDS011;59568;52.128;5.434;2023-04-28T12:42:51;5.00;;;2.70;;
71715;SDS011;59568;52.128;5.434;2023-04-28T12:45:17;5.18;;;2.22;;
71715;SDS011;59568;52.128;5.434;2023-04-28T12:47:44;4.88;;;1.92;;
71715;SDS011;59568;52.128;5.434;2023-04-28T12:50:12;3.70;;;1.93;;
71715;SDS011;59568;52.128;5.434;2023-04-28T12:52:39;3.95;;;1.80;;
71715;SDS011;59568;52.128;5.434;2023-04-28T12:55:05;4.53;;;1.52;;
71715;SDS011;59568;52.128;5.434;2023-04-28T12:57:33;4.97;;;1.45;;
71715;SDS011;59568;52.128;5.434;2023-04-28T13:00:04;2.90;;;1.30;;
71715;SDS011;59568;52.128;5.434;2023-04-28T13:02:32;4.63;;;1.40;;
71715;SDS011;59568;52.128;5.434;2023-04-28T13:05:01;3.70;;;1.35;;
71715;SDS011;59568;52.128;5.434;2023-04-28T13:07:28;3.05;;;1.20;;
71715;SDS011;59568;52.128;5.434;2023-04-28T13:09:55;2.15;;;1.20;;
71715;SDS011;59568;52.128;5.434;2023-04-28T13:12:22;2.55;;;1.40;;
71715;SDS011;59568;52.128;5.434;2023-04-28T13:14:49;1.97;;;1.10;;
71715;SDS011;59568;52.128;5.434;2023-04-28T13:17:16;1.70;;;0.85;;
71715;SDS011;59568;52.128;5.434;2023-04-28T13:19:42;2.10;;;1.13;;
71715;SDS011;59568;52.128;5.434;2023-04-28T13:22:09;2.00;;;1.00;;
71715;SDS011;59568;52.128;5.434;2023-04-28T13:24:36;2.75;;;1.30;;
71715;SDS011;59568;52.128;5.434;2023-04-28T13:27:03;3.33;;;1.70;;
71715;SDS011;59568;52.128;5.434;2023-04-28T13:29:29;3.13;;;1.60;;
71715;SDS011;59568;52.128;5.434;2023-04-28T13:31:56;1.90;;;1.55;;
71715;SDS011;59568;52.128;5.434;2023-04-28T13:34:23;2.25;;;1.60;;
71715;SDS011;59568;52.128;5.434;2023-04-28T13:36:50;3.50;;;2.10;;
71715;SDS011;59568;52.128;5.434;2023-04-28T13:39:19;3.37;;;1.80;;
71715;SDS011;59568;52.128;5.434;2023-04-28T13:41:47;2.60;;;2.10;;
71715;SDS011;59568;52.128;5.434;2023-04-28T13:44:16;2.60;;;2.17;;
71715;SDS011;59568;52.128;5.434;2023-04-28T13:46:43;2.45;;;2.10;;
71715;SDS011;59568;52.128;5.434;2023-04-28T13:49:11;2.80;;;2.17;;
71715;SDS011;59568;52.128;5.434;2023-04-28T13:51:38;2.63;;;2.43;;
71715;SDS011;59568;52.128;5.434;2023-04-28T13:54:04;2.60;;;2.15;;
71715;SDS011;59568;52.128;5.434;2023-04-28T13:56:34;2.85;;;2.58;;
71715;SDS011;59568;52.128;5.434;2023-04-28T13:59:01;2.50;;;2.22;;
71715;SDS011;59568;52.128;5.434;2023-04-28T14:01:29;3.70;;;2.20;;
71715;SDS011;59568;52.128;5.434;2023-04-28T14:03:55;2.47;;;1.93;;
71715;SDS011;59568;52.128;5.434;2023-04-28T14:06:22;1.77;;;1.52;;
71715;SDS011;59568;52.128;5.434;2023-04-28T14:08:49;2.20;;;1.98;;
71715;SDS011;59568;52.128;5.434;2023-04-28T14:11:15;2.15;;;1.80;;
71715;SDS011;59568;52.128;5.434;2023-04-28T14:13:42;2.38;;;1.48;;
71715;SDS011;59568;52.128;5.434;2023-04-28T14:16:08;1.77;;;1.37;;
71715;SDS011;59568;52.128;5.434;2023-04-28T14:18:35;1.50;;;1.33;;
71715;SDS011;59568;52.128;5.434;2023-04-28T14:21:04;1.50;;;1.20;;
71715;SDS011;59568;52.128;5.434;2023-04-28T14:23:33;1.50;;;1.10;;
71715;SDS011;59568;52.128;5.434;2023-04-28T14:26:03;2.28;;;1.48;;
71715;SDS011;59568;52.128;5.434;2023-04-28T14:28:30;1.43;;;1.10;;
71715;SDS011;59568;52.128;5.434;2023-04-28T14:30:56;2.60;;;1.45;;
71715;SDS011;59568;52.128;5.434;2023-04-28T14:33:23;3.05;;;1.33;;
71715;SDS011;59568;52.128;5.434;2023-04-28T14:35:49;2.33;;;1.48;;
71715;SDS011;59568;52.128;5.434;2023-04-28T14:38:16;1.77;;;1.33;;
71715;SDS011;59568;52.128;5.434;2023-04-28T14:40:43;2.83;;;1.40;;
71715;SDS011;59568;52.128;5.434;2023-04-28T14:43:09;2.15;;;1.33;;
71715;SDS011;59568;52.128;5.434;2023-04-28T14:45:36;5.43;;;1.98;;
71715;SDS011;59568;52.128;5.434;2023-04-28T14:48:07;3.90;;;2.15;;
71715;SDS011;59568;52.128;5.434;2023-04-28T14:50:35;3.63;;;2.38;;
71715;SDS011;59568;52.128;5.434;2023-04-28T14:53:02;4.57;;;2.47;;
71715;SDS011;59568;52.128;5.434;2023-04-28T14:55:32;4.82;;;2.85;;
71715;SDS011;59568;52.128;5.434;2023-04-28T14:57:58;5.28;;;3.00;;
71715;SDS011;59568;52.128;5.434;2023-04-28T15:00:25;7.10;;;3.38;;
71715;SDS011;59568;52.128;5.434;2023-04-28T15:02:51;5.95;;;3.72;;
71715;SDS011;59568;52.128;5.434;2023-04-28T15:05:18;6.70;;;3.30;;
71715;SDS011;59568;52.128;5.434;2023-04-28T15:07:45;7.85;;;4.20;;
71715;SDS011;59568;52.128;5.434;2023-04-28T15:10:12;6.38;;;3.70;;
71715;SDS011;59568;52.128;5.434;2023-04-28T15:12:39;7.13;;;3.88;;
71715;SDS011;59568;52.128;5.434;2023-04-28T15:15:07;7.72;;;3.97;;
71715;SDS011;59568;52.128;5.434;2023-04-28T15:17:34;8.00;;;3.80;;
71715;SDS011;59568;52.128;5.434;2023-04-28T15:20:01;8.15;;;3.90;;
71715;SDS011;59568;52.128;5.434;2023-04-28T15:22:29;6.70;;;3.70;;
71715;SDS011;59568;52.128;5.434;2023-04-28T15:24:56;8.02;;;3.50;;
71715;SDS011;59568;52.128;5.434;2023-04-28T15:27:22;7.55;;;4.18;;